HGLO2: Hugo Lake

Data processed at Sat Dec 09 2017 23:06


All information presented herein is the property of the government of the United States of America and may be revised or deleted at any time without prior notice.
Dissemination of this information without the expressed written consent of the Public Affairs Office, Tulsa District U.S. Army Corps of Engineers is strictly prohibited.
These data are gathered electronically and, as presented, have not undergone any form of quality control. These data are not guaranteed to be valid or correct.
Go to home page.
Go to station list.

Upstream stations:

Downstream station:
Previous Day
Next Day
Current Day
    
SHEF ID:       HGLO2     Hugo Lake
STATION TYPE:  RESERVOIR
Normal Pool:  Bottom =   390.00, Top =   404.50

               PRECIP ELEVATION   STORAGE    INFLOW   RELEASE  AIR-TEMP  WIND-DIRWIND-SPEED REL-HUMID SOLAR-RAD   VOLTAGE  BAT-LOAD
                   in        ft     ac-ft       cfs       cfs         F       deg       mph         %      W/m2      volt      volt
              Ccp-Rev   Ccp-Rev   Ccp-Rev  Regi-Rev  Regi-Rev   Ccp-Rev   Ccp-Rev   Ccp-Rev   Ccp-Rev   Ccp-Rev   Ccp-Rev   Ccp-Rev
(US/Central)
12/07 00:00      0.00    402.80    123079         1        31     45.81    355.60     13.81     59.03      0.00     13.64     13.30
12/07 01:00      0.00    402.79    122966         2        31     44.82    357.60     10.12     59.76      0.00     13.64     13.30
12/07 02:00      0.00    402.77    122740         5        31     42.96    308.90      5.64     63.48      0.00     13.63     13.30
12/07 03:00      0.00    402.78    122853         9        31     40.21    283.90      1.84     65.86      0.00     13.63     13.30
12/07 04:00      0.00    402.77    122740        21        31     40.77    313.30      4.15     68.49      0.00     13.63     13.30
12/07 05:00      0.00    402.81    123192        26        31     42.08    330.60      9.15     72.64      0.00     13.63     13.30
12/07 06:00      0.00    402.84    123531       312        31     39.43    359.60     16.05     66.23      0.00     13.63     13.30
12/07 07:00      0.00    402.84    123531       311        31     38.57    358.30     19.02     65.74      0.00     13.63     13.30
12/07 08:00      0.00    402.86    123757       311        31     36.91    359.30     22.44     69.16     39.00     13.63     13.30
12/07 09:00      0.00    402.92    124435       302        31     35.94    355.80     26.42     60.50    102.00     13.62     13.30
12/07 10:00      0.00    402.86    123757       299        31     35.38    358.50     25.15     52.31    156.00     13.63     12.65
12/07 11:00      0.00    402.86    123757        16        31     37.13      0.60     24.83     46.64    384.00     13.62     13.30
12/07 12:00      0.00    402.81    123192         0        31     36.48      7.30     19.72     41.51    315.00     13.62     13.30
12/07 13:00      0.00    402.81    123192        16        31     37.80    353.40     16.45     46.39    256.00     13.62     12.48
12/07 14:00      0.00    402.82    123305        90        31     38.01    349.90     20.95     45.35    290.00     13.63     13.30
12/07 15:00      0.00    402.81    123192        88        31     38.57    351.10     17.69     41.63    261.00     13.62     13.30
12/07 16:00      0.00    402.82    123305        87        31     39.22    354.60     18.36     40.04    160.00     13.62     13.30
12/07 17:00      0.00    402.84    123531        84        31     37.80    357.20     21.00     40.23     22.00     13.63     13.30
12/07 18:00      0.00    402.82    123305        81        31     36.81      6.70     14.37     40.96      0.00     13.62     13.30
12/07 19:00      0.00    402.81    123192         3        31     36.70      0.10     17.88     43.58      0.00     13.63     13.30
12/07 20:00      0.00    402.81    123192         2        31     35.92      3.40     16.42     41.57      0.00     13.62     13.30
12/07 21:00      0.00    402.80    123079         0        31     35.04      2.60     15.17     42.30      0.00     13.62     13.30
12/07 22:00      0.00    402.79    122966         0        31     35.49    358.00     15.63     47.74      0.00     13.62     13.30
12/07 23:00      0.00    402.78    122853         3        31     34.27    336.60      9.59     57.50      0.00     13.62     13.30